Flight Track Log - Related Links

Times and Time Zones

All times are in EDT time to prevent confusion due to time zone crossing. See the UCA4793 flight status page for this flight to view local times or setup timezone preferences in your user account.

Time Position Orientation Groundspeed Altitude Reporting Facility
EDT Latitude Longitude Course Direction KTS MPH feet Rate Location/Type
Tue 06:03:29 PM 43.1044 -76.1006 132° Southeast 122 140 1,000  Level Boston Center
Tue 06:04:05 PM 43.0906 -76.0797 132° Southeast 128 147 1,800 1,223 Climbing Boston Center
Tue 06:05:12 PM 43.0397 -76.1022 198° South 197 227 3,100 1,125 Climbing Boston Center
Tue 06:06:13 PM 43.0586 -76.1658 292° West 211 243 4,200 1,547 Climbing Boston Center
Tue 06:07:20 PM 43.1042 -76.2342 312° West 202 232 6,400 1,690 Climbing Boston Center
Tue 06:09:46 PM 43.1881 -76.3686 311° West 205 236 10,200 1,551 Climbing Cleveland Center
Tue 06:10:45 PM 43.2011 -76.4447 283° West 194 223 11,700 1,513 Climbing Cleveland Center
Tue 06:11:45 PM 43.2122 -76.5236 281° West 201 231 13,200 1,488 Climbing Cleveland Center
Tue 06:12:46 PM 43.2253 -76.5997 283° West 206 237 14,700 1,300 Climbing Cleveland Center
Tue 06:13:45 PM 43.2383 -76.6789 283° West 212 244 15,800 655 Climbing Cleveland Center
Tue 06:14:45 PM 43.2561 -76.7717 285° West 231 266 16,000 99 Climbing Cleveland Center
Tue 06:15:46 PM 43.2742 -76.8733 284° West 261 300 16,000  Level Cleveland Center
Tue 06:16:45 PM 43.2900 -76.9808 281° West 282 325 16,000  Level Cleveland Center
Tue 06:17:45 PM 43.3058 -77.0911 281° West 293 337 16,000  Level Cleveland Center
Tue 06:18:46 PM 43.2794 -77.1867 249° West 272 313 16,000  Level Cleveland Center
Tue 06:19:46 PM 43.2361 -77.2689 234° Southwest 267 307 16,000  Level Cleveland Center
Tue 06:20:45 PM 43.1883 -77.3514 232° Southwest 272 313 16,000  Level Cleveland Center
Tue 06:21:46 PM 43.1447 -77.4303 233° Southwest 277 319 16,000  Level Cleveland Center
Tue 06:22:46 PM 43.0989 -77.5153 234° Southwest 277 319 16,000  Level Cleveland Center
Tue 06:23:45 PM 43.0531 -77.5942 232° Southwest 277 319 16,000  Level Cleveland Center
Tue 06:24:45 PM 43.0094 -77.6786 235° Southwest 277 319 16,000  Level Cleveland Center
Tue 06:25:45 PM 42.9636 -77.7603 233° Southwest 277 319 16,000  Level Cleveland Center
Tue 06:26:46 PM 42.9175 -77.8417 232° Southwest 277 319 16,000  Level Cleveland Center
Tue 06:27:46 PM 42.8736 -77.9258 235° Southwest 277 319 16,000  Level Cleveland Center
Tue 06:28:45 PM 42.8253 -78.0042 230° Southwest 277 319 16,000  Level Cleveland Center
Tue 06:29:46 PM 42.7814 -78.0881 235° Southwest 277 319 16,000  Level Cleveland Center
Tue 06:30:45 PM 42.7372 -78.1661 232° Southwest 277 319 16,000  Level Cleveland Center
Tue 06:31:45 PM 42.6950 -78.2469 235° Southwest 277 319 16,000  Level Cleveland Center
Tue 06:32:45 PM 42.6614 -78.3358 243° Southwest 277 319 16,000  Level Cleveland Center
Tue 06:33:45 PM 42.6297 -78.4186 243° Southwest 277 319 16,000  Level Cleveland Center
Tue 06:34:45 PM 42.5958 -78.5072 243° Southwest 272 313 16,000  Level Cleveland Center
Tue 06:35:45 PM 42.5597 -78.5958 241° Southwest 272 313 16,000  Level Cleveland Center
Tue 06:36:45 PM 42.5281 -78.6842 244° Southwest 272 313 16,000  Level Cleveland Center
Tue 06:37:45 PM 42.4919 -78.7725 241° Southwest 272 313 16,000  Level Cleveland Center
Tue 06:38:45 PM 42.4558 -78.8608 241° Southwest 272 313 16,000  Level Cleveland Center
Tue 06:39:45 PM 42.4194 -78.9519 242° Southwest 277 319 16,000  Level Cleveland Center
Tue 06:40:45 PM 42.3853 -79.0428 243° Southwest 277 319 16,000  Level Cleveland Center
Tue 06:41:45 PM 42.3511 -79.1278 241° Southwest 271 312 16,000  Level Cleveland Center
Tue 06:42:45 PM 42.3144 -79.2158 241° Southwest 271 312 16,000  Level Cleveland Center
Tue 06:43:45 PM 42.2800 -79.3033 242° Southwest 271 312 16,000  Level Cleveland Center
Tue 06:44:45 PM 42.2417 -79.4025 242° Southwest 271 312 16,000  Level Cleveland Center
Tue 06:45:45 PM 42.2050 -79.4928 241° Southwest 271 312 16,000  Level Cleveland Center
Tue 06:46:45 PM 42.1703 -79.5775 241° Southwest 271 312 16,000  Level Cleveland Center
Tue 06:47:45 PM 42.1356 -79.6703 243° Southwest 276 318 16,000  Level Cleveland Center
Tue 06:48:45 PM 42.0989 -79.7578 241° Southwest 276 318 16,000  Level Cleveland Center
Tue 06:49:45 PM 42.0619 -79.8478 241° Southwest 276 318 16,000  Level Cleveland Center
Tue 06:50:45 PM 42.0269 -79.9347 242° Southwest 276 318 16,000  Level Cleveland Center
Tue 06:51:45 PM 41.9919 -80.0189 241° Southwest 281 323 16,000 -150 Level Cleveland Center
Tue 06:52:45 PM 41.9547 -80.1086 241° Southwest 281 323 15,700 -700 Descending Cleveland Center
Tue 06:53:45 PM 41.9219 -80.2008 244° Southwest 281 323 14,600 -1,100 Descending Cleveland Center
Tue 06:54:45 PM 41.8867 -80.2847 241° Southwest 273 314 13,500 -1,100 Descending Cleveland Center
Tue 06:55:45 PM 41.8514 -80.3628 239° Southwest 260 299 12,400 -750 Descending Cleveland Center
Tue 06:56:45 PM 41.8119 -80.4550 240° Southwest 260 299 12,000 -150 Descending Cleveland Center
Tue 06:57:45 PM 41.7767 -80.5442 242° Southwest 260 299 12,100  Climbing Cleveland Center
Tue 06:58:45 PM 41.7431 -80.6278 242° Southwest 260 299 12,000 -50 Descending Cleveland Center
Tue 06:59:45 PM 41.7056 -80.7111 239° Southwest 265 305 12,000  Level Cleveland Center
Tue 07:00:45 PM 41.6700 -80.7944 240° Southwest 260 299 12,000  Level Cleveland Center
Tue 07:01:45 PM 41.6344 -80.8806 241° Southwest 260 299 12,000 -229 Level Cleveland Center
Tue 07:02:30 PM 41.6092 -80.9414 241° Southwest 268 308 11,600 -800 Descending Cleveland Center
Tue 07:02:45 PM 41.5986 -80.9692 243° Southwest 260 299 11,200 -1,180 Descending Cleveland Center
Tue 07:03:31 PM 41.5714 -81.0328 240° Southwest 278 320 10,400 -1,100 Descending Cleveland Center
Tue 07:04:45 PM 41.5272 -81.1406 241° Southwest 258 297 9,000 -694 Descending Cleveland Center
Tue 07:05:32 PM 41.5081 -81.2153 251° West 268 308 9,000  Level Cleveland Center
Tue 07:06:39 PM 41.4947 -81.3206 260° West 261 300 9,000 47 Level Cleveland Center
Tue 07:07:40 PM 41.4817 -81.4092 259° West 244 281 9,100 -313 Climbing Cleveland Center
Tue 07:08:34 PM 41.4747 -81.4922 264° West 242 278 8,400 -1,043 Descending Cleveland Center
Tue 07:09:35 PM 41.4594 -81.5750 256° West 239 275 7,100 -609 Descending Cleveland Center
Tue 07:10:42 PM 41.4294 -81.6769 249° West 257 296 7,100  Level Cleveland Center
Tue 07:11:45 PM 41.3911 -81.7483 234° Southwest 258 297 7,100 -645 Level Cleveland Center
Tue 07:12:43 PM 41.3528 -81.8361 240° Southwest 239 275 5,800 -1,311 Descending Cleveland Center
Tue 07:13:44 PM 41.3353 -81.9106 253° West 204 235 4,500 -1,565 Descending Cleveland Center
Tue 07:14:38 PM 41.3683 -81.9222 345° North 147 169 2,800 -1,774 Descending Cleveland Center
Tue 07:15:39 PM 41.3917 -81.8894 46° Northeast 106 122 1,100 -1,672 Descending Cleveland Center
Tue 07:17:00 PM 41.4000 -81.8500 29° Northeast  Level FlightAware Approximate

Login

Don't have an account? Register now (free) for customized features, flight alerts, and more!